sensor_id;sensor_type;location;lat;lon;timestamp;P1;durP1;ratioP1;P2;durP2;ratioP2
65071;SDS011;51663;52.310;17.016;2023-04-24T00:01:42;10.82;;;9.93;;
65071;SDS011;51663;52.310;17.016;2023-04-24T00:12:54;11.70;;;10.30;;
65071;SDS011;51663;52.310;17.016;2023-04-24T00:20:32;12.30;;;10.47;;
65071;SDS011;51663;52.310;17.016;2023-04-24T00:24:41;12.13;;;10.93;;
65071;SDS011;51663;52.310;17.016;2023-04-24T00:36:53;11.65;;;10.57;;
65071;SDS011;51663;52.310;17.016;2023-04-24T00:48:55;11.65;;;10.25;;
65071;SDS011;51663;52.310;17.016;2023-04-24T00:52:41;11.85;;;10.68;;
65071;SDS011;51663;52.310;17.016;2023-04-24T00:57:26;12.27;;;11.05;;
65071;SDS011;51663;52.310;17.016;2023-04-24T01:06:18;12.07;;;10.88;;
65071;SDS011;51663;52.310;17.016;2023-04-24T01:10:36;12.30;;;11.10;;
65071;SDS011;51663;52.310;17.016;2023-04-24T01:21:48;13.93;;;11.48;;
65071;SDS011;51663;52.310;17.016;2023-04-24T01:25:14;11.32;;;10.25;;
65071;SDS011;51663;52.310;17.016;2023-04-24T01:29:20;10.80;;;9.80;;
65071;SDS011;51663;52.310;17.016;2023-04-24T01:32:38;14.73;;;11.55;;
65071;SDS011;51663;52.310;17.016;2023-04-24T01:36:52;15.95;;;11.95;;
65071;SDS011;51663;52.310;17.016;2023-04-24T01:41:04;11.88;;;10.57;;
65071;SDS011;51663;52.310;17.016;2023-04-24T01:55:38;13.63;;;11.00;;
65071;SDS011;51663;52.310;17.016;2023-04-24T02:17:52;12.20;;;11.00;;
65071;SDS011;51663;52.310;17.016;2023-04-24T02:22:13;10.98;;;9.90;;
65071;SDS011;51663;52.310;17.016;2023-04-24T02:29:11;11.95;;;10.75;;
65071;SDS011;51663;52.310;17.016;2023-04-24T02:36:53;12.30;;;11.03;;
65071;SDS011;51663;52.310;17.016;2023-04-24T02:49:03;11.40;;;10.23;;
65071;SDS011;51663;52.310;17.016;2023-04-24T02:53:24;11.73;;;10.53;;
65071;SDS011;51663;52.310;17.016;2023-04-24T02:57:57;10.90;;;9.80;;
65071;SDS011;51663;52.310;17.016;2023-04-24T03:01:59;10.47;;;9.47;;
65071;SDS011;51663;52.310;17.016;2023-04-24T03:05:02;11.17;;;9.90;;
65071;SDS011;51663;52.310;17.016;2023-04-24T03:08:05;10.80;;;9.70;;
65071;SDS011;51663;52.310;17.016;2023-04-24T03:16:19;9.97;;;9.10;;
65071;SDS011;51663;52.310;17.016;2023-04-24T03:19:21;10.80;;;9.80;;
65071;SDS011;51663;52.310;17.016;2023-04-24T03:28:00;10.18;;;9.25;;
65071;SDS011;51663;52.310;17.016;2023-04-24T03:31:13;11.13;;;9.47;;
65071;SDS011;51663;52.310;17.016;2023-04-24T03:35:39;10.27;;;9.30;;
65071;SDS011;51663;52.310;17.016;2023-04-24T03:38:42;14.67;;;9.87;;
65071;SDS011;51663;52.310;17.016;2023-04-24T04:03:00;13.55;;;11.50;;
65071;SDS011;51663;52.310;17.016;2023-04-24T04:11:26;13.63;;;11.37;;
65071;SDS011;51663;52.310;17.016;2023-04-24T04:15:56;12.37;;;11.07;;
65071;SDS011;51663;52.310;17.016;2023-04-24T04:23:43;12.20;;;11.00;;
65071;SDS011;51663;52.310;17.016;2023-04-24T04:27:55;12.73;;;11.53;;
65071;SDS011;51663;52.310;17.016;2023-04-24T04:31:41;13.53;;;12.13;;
65071;SDS011;51663;52.310;17.016;2023-04-24T04:35:39;13.03;;;11.80;;
65071;SDS011;51663;52.310;17.016;2023-04-24T04:40:06;12.97;;;11.67;;
65071;SDS011;51663;52.310;17.016;2023-04-24T04:44:18;13.43;;;10.80;;
65071;SDS011;51663;52.310;17.016;2023-04-24T04:58:40;12.80;;;10.52;;
65071;SDS011;51663;52.310;17.016;2023-04-24T05:13:39;12.40;;;9.05;;
65071;SDS011;51663;52.310;17.016;2023-04-24T05:32:46;10.02;;;9.02;;
65071;SDS011;51663;52.310;17.016;2023-04-24T05:39:32;11.60;;;9.80;;
65071;SDS011;51663;52.310;17.016;2023-04-24T05:42:54;20.00;;;10.35;;
65071;SDS011;51663;52.310;17.016;2023-04-24T05:50:47;16.58;;;10.15;;
65071;SDS011;51663;52.310;17.016;2023-04-24T05:53:50;18.23;;;10.88;;
65071;SDS011;51663;52.310;17.016;2023-04-24T06:00:48;15.38;;;10.65;;
65071;SDS011;51663;52.310;17.016;2023-04-24T06:04:54;20.58;;;12.10;;
65071;SDS011;51663;52.310;17.016;2023-04-24T06:12:09;12.05;;;10.15;;
65071;SDS011;51663;52.310;17.016;2023-04-24T06:16:42;10.20;;;9.18;;
65071;SDS011;51663;52.310;17.016;2023-04-24T06:19:59;10.45;;;9.20;;
65071;SDS011;51663;52.310;17.016;2023-04-24T06:23:21;12.00;;;9.55;;
65071;SDS011;51663;52.310;17.016;2023-04-24T06:30:36;10.25;;;9.25;;
65071;SDS011;51663;52.310;17.016;2023-04-24T06:34:11;11.80;;;8.73;;
65071;SDS011;51663;52.310;17.016;2023-04-24T06:37:53;9.93;;;8.23;;
65071;SDS011;51663;52.310;17.016;2023-04-24T06:41:40;9.32;;;8.43;;
65071;SDS011;51663;52.310;17.016;2023-04-24T06:45:23;10.20;;;9.27;;
65071;SDS011;51663;52.310;17.016;2023-04-24T06:49:08;10.55;;;9.20;;
65071;SDS011;51663;52.310;17.016;2023-04-24T06:53:01;9.57;;;8.73;;
65071;SDS011;51663;52.310;17.016;2023-04-24T06:56:46;10.32;;;8.60;;
65071;SDS011;51663;52.310;17.016;2023-04-24T07:00:30;11.70;;;9.85;;
65071;SDS011;51663;52.310;17.016;2023-04-24T07:03:34;10.02;;;9.00;;
65071;SDS011;51663;52.310;17.016;2023-04-24T07:06:54;10.50;;;9.13;;
65071;SDS011;51663;52.310;17.016;2023-04-24T07:10:04;9.05;;;8.27;;
65071;SDS011;51663;52.310;17.016;2023-04-24T07:13:34;11.02;;;9.82;;
65071;SDS011;51663;52.310;17.016;2023-04-24T07:17:10;11.25;;;10.00;;
65071;SDS011;51663;52.310;17.016;2023-04-24T07:20:29;9.88;;;8.95;;
65071;SDS011;51663;52.310;17.016;2023-04-24T07:24:14;9.48;;;8.63;;
65071;SDS011;51663;52.310;17.016;2023-04-24T07:31:29;10.02;;;8.90;;
65071;SDS011;51663;52.310;17.016;2023-04-24T07:35:04;8.52;;;7.82;;
65071;SDS011;51663;52.310;17.016;2023-04-24T07:38:25;8.48;;;7.78;;
65071;SDS011;51663;52.310;17.016;2023-04-24T07:41:27;8.13;;;7.50;;
65071;SDS011;51663;52.310;17.016;2023-04-24T07:51:58;8.32;;;7.60;;
65071;SDS011;51663;52.310;17.016;2023-04-24T07:55:09;8.13;;;7.53;;
65071;SDS011;51663;52.310;17.016;2023-04-24T07:58:46;8.23;;;7.53;;
65071;SDS011;51663;52.310;17.016;2023-04-24T08:02:23;8.18;;;7.55;;
65071;SDS011;51663;52.310;17.016;2023-04-24T08:05:39;8.35;;;7.55;;
65071;SDS011;51663;52.310;17.016;2023-04-24T08:09:11;8.82;;;7.75;;
65071;SDS011;51663;52.310;17.016;2023-04-24T08:12:23;15.23;;;8.32;;
65071;SDS011;51663;52.310;17.016;2023-04-24T08:19:59;13.60;;;8.88;;
65071;SDS011;51663;52.310;17.016;2023-04-24T08:23:25;8.27;;;7.57;;
65071;SDS011;51663;52.310;17.016;2023-04-24T08:26:29;9.30;;;7.95;;
65071;SDS011;51663;52.310;17.016;2023-04-24T08:29:39;7.50;;;6.80;;
65071;SDS011;51663;52.310;17.016;2023-04-24T08:33:10;8.13;;;7.47;;
65071;SDS011;51663;52.310;17.016;2023-04-24T08:37:26;9.43;;;8.57;;
65071;SDS011;51663;52.310;17.016;2023-04-24T08:41:21;8.45;;;7.63;;
65071;SDS011;51663;52.310;17.016;2023-04-24T08:44:26;8.80;;;7.97;;
65071;SDS011;51663;52.310;17.016;2023-04-24T08:51:42;9.57;;;8.60;;
65071;SDS011;51663;52.310;17.016;2023-04-24T08:55:05;9.02;;;8.23;;
65071;SDS011;51663;52.310;17.016;2023-04-24T08:58:12;9.30;;;8.48;;
65071;SDS011;51663;52.310;17.016;2023-04-24T09:01:16;13.07;;;8.52;;
65071;SDS011;51663;52.310;17.016;2023-04-24T09:04:24;9.88;;;8.98;;
65071;SDS011;51663;52.310;17.016;2023-04-24T09:07:49;9.18;;;8.27;;
65071;SDS011;51663;52.310;17.016;2023-04-24T09:10:56;10.82;;;9.73;;
65071;SDS011;51663;52.310;17.016;2023-04-24T09:13:59;9.20;;;8.48;;
65071;SDS011;51663;52.310;17.016;2023-04-24T09:17:03;9.48;;;8.27;;
65071;SDS011;51663;52.310;17.016;2023-04-24T09:20:05;9.70;;;8.73;;
65071;SDS011;51663;52.310;17.016;2023-04-24T09:23:17;10.57;;;8.32;;
65071;SDS011;51663;52.310;17.016;2023-04-24T09:26:25;8.73;;;7.88;;
65071;SDS011;51663;52.310;17.016;2023-04-24T09:29:30;7.88;;;7.13;;
65071;SDS011;51663;52.310;17.016;2023-04-24T09:32:34;10.75;;;8.32;;
65071;SDS011;51663;52.310;17.016;2023-04-24T09:35:40;8.82;;;7.57;;
65071;SDS011;51663;52.310;17.016;2023-04-24T09:38:44;8.68;;;7.88;;
65071;SDS011;51663;52.310;17.016;2023-04-24T09:42:00;9.50;;;8.55;;
65071;SDS011;51663;52.310;17.016;2023-04-24T09:45:04;8.45;;;7.53;;
65071;SDS011;51663;52.310;17.016;2023-04-24T09:48:19;9.40;;;8.40;;
65071;SDS011;51663;52.310;17.016;2023-04-24T09:51:33;7.68;;;7.07;;
65071;SDS011;51663;52.310;17.016;2023-04-24T09:54:39;8.00;;;7.30;;
65071;SDS011;51663;52.310;17.016;2023-04-24T09:57:51;6.63;;;6.03;;
65071;SDS011;51663;52.310;17.016;2023-04-24T10:00:57;6.45;;;5.95;;
65071;SDS011;51663;52.310;17.016;2023-04-24T10:03:59;6.60;;;6.10;;
65071;SDS011;51663;52.310;17.016;2023-04-24T10:07:03;6.60;;;6.10;;
65071;SDS011;51663;52.310;17.016;2023-04-24T10:10:11;6.95;;;6.35;;
65071;SDS011;51663;52.310;17.016;2023-04-24T10:13:14;7.93;;;7.22;;
65071;SDS011;51663;52.310;17.016;2023-04-24T10:16:17;7.93;;;7.32;;
65071;SDS011;51663;52.310;17.016;2023-04-24T10:19:24;7.10;;;6.47;;
65071;SDS011;51663;52.310;17.016;2023-04-24T10:22:28;5.90;;;4.50;;
65071;SDS011;51663;52.310;17.016;2023-04-24T10:25:33;4.95;;;4.00;;
65071;SDS011;51663;52.310;17.016;2023-04-24T10:28:36;4.93;;;4.53;;
65071;SDS011;51663;52.310;17.016;2023-04-24T10:31:39;4.35;;;3.90;;
65071;SDS011;51663;52.310;17.016;2023-04-24T10:34:42;5.70;;;5.30;;
65071;SDS011;51663;52.310;17.016;2023-04-24T10:37:51;6.00;;;5.25;;
65071;SDS011;51663;52.310;17.016;2023-04-24T10:41:11;4.45;;;4.15;;
65071;SDS011;51663;52.310;17.016;2023-04-24T10:44:22;5.20;;;4.70;;
65071;SDS011;51663;52.310;17.016;2023-04-24T10:47:25;4.88;;;4.57;;
65071;SDS011;51663;52.310;17.016;2023-04-24T10:50:29;4.70;;;4.40;;
65071;SDS011;51663;52.310;17.016;2023-04-24T10:53:43;4.35;;;4.15;;
65071;SDS011;51663;52.310;17.016;2023-04-24T10:56:46;5.10;;;4.80;;
65071;SDS011;51663;52.310;17.016;2023-04-24T10:59:49;4.35;;;4.05;;
65071;SDS011;51663;52.310;17.016;2023-04-24T11:03:25;3.95;;;3.53;;
65071;SDS011;51663;52.310;17.016;2023-04-24T11:09:37;3.92;;;3.72;;
65071;SDS011;51663;52.310;17.016;2023-04-24T11:12:51;3.88;;;3.58;;
65071;SDS011;51663;52.310;17.016;2023-04-24T11:19:26;3.67;;;3.45;;
65071;SDS011;51663;52.310;17.016;2023-04-24T11:22:52;3.80;;;3.50;;
65071;SDS011;51663;52.310;17.016;2023-04-24T11:26:09;3.35;;;3.15;;
65071;SDS011;51663;52.310;17.016;2023-04-24T11:29:19;3.83;;;3.25;;
65071;SDS011;51663;52.310;17.016;2023-04-24T11:32:40;6.22;;;3.10;;
65071;SDS011;51663;52.310;17.016;2023-04-24T11:35:45;3.47;;;3.28;;
65071;SDS011;51663;52.310;17.016;2023-04-24T11:38:47;3.13;;;2.92;;
65071;SDS011;51663;52.310;17.016;2023-04-24T11:41:50;6.50;;;3.40;;
65071;SDS011;51663;52.310;17.016;2023-04-24T11:44:53;5.60;;;3.45;;
65071;SDS011;51663;52.310;17.016;2023-04-24T11:48:02;5.00;;;3.30;;
65071;SDS011;51663;52.310;17.016;2023-04-24T11:51:05;3.15;;;2.90;;
65071;SDS011;51663;52.310;17.016;2023-04-24T11:54:10;3.10;;;2.80;;
65071;SDS011;51663;52.310;17.016;2023-04-24T11:57:13;2.95;;;2.75;;
65071;SDS011;51663;52.310;17.016;2023-04-24T12:03:49;3.45;;;2.83;;
65071;SDS011;51663;52.310;17.016;2023-04-24T12:07:04;4.15;;;3.00;;
65071;SDS011;51663;52.310;17.016;2023-04-24T12:10:25;3.85;;;2.92;;
65071;SDS011;51663;52.310;17.016;2023-04-24T12:13:31;2.75;;;2.55;;
65071;SDS011;51663;52.310;17.016;2023-04-24T12:16:36;2.72;;;2.53;;
65071;SDS011;51663;52.310;17.016;2023-04-24T12:19:47;3.80;;;3.50;;
65071;SDS011;51663;52.310;17.016;2023-04-24T12:22:53;4.00;;;3.55;;
65071;SDS011;51663;52.310;17.016;2023-04-24T12:26:26;3.20;;;3.00;;
65071;SDS011;51663;52.310;17.016;2023-04-24T12:29:31;4.32;;;2.67;;
65071;SDS011;51663;52.310;17.016;2023-04-24T12:32:34;3.10;;;2.47;;
65071;SDS011;51663;52.310;17.016;2023-04-24T12:35:39;4.75;;;3.80;;
65071;SDS011;51663;52.310;17.016;2023-04-24T12:38:43;2.92;;;2.72;;
65071;SDS011;51663;52.310;17.016;2023-04-24T12:41:54;2.75;;;2.55;;
65071;SDS011;51663;52.310;17.016;2023-04-24T12:45:00;2.72;;;2.53;;
65071;SDS011;51663;52.310;17.016;2023-04-24T12:48:07;3.17;;;2.97;;
65071;SDS011;51663;52.310;17.016;2023-04-24T12:51:10;6.20;;;2.90;;
65071;SDS011;51663;52.310;17.016;2023-04-24T12:54:14;2.95;;;2.75;;
65071;SDS011;51663;52.310;17.016;2023-04-24T12:57:17;7.97;;;2.90;;
65071;SDS011;51663;52.310;17.016;2023-04-24T13:00:20;2.70;;;2.50;;
65071;SDS011;51663;52.310;17.016;2023-04-24T13:03:26;4.72;;;3.13;;
65071;SDS011;51663;52.310;17.016;2023-04-24T13:06:33;3.28;;;2.97;;
65071;SDS011;51663;52.310;17.016;2023-04-24T13:09:35;3.10;;;2.90;;
65071;SDS011;51663;52.310;17.016;2023-04-24T13:12:38;32.42;;;3.88;;
65071;SDS011;51663;52.310;17.016;2023-04-24T13:15:42;2.28;;;2.00;;
65071;SDS011;51663;52.310;17.016;2023-04-24T13:18:46;3.90;;;2.20;;
65071;SDS011;51663;52.310;17.016;2023-04-24T13:21:49;2.40;;;2.20;;
65071;SDS011;51663;52.310;17.016;2023-04-24T13:24:54;3.33;;;2.40;;
65071;SDS011;51663;52.310;17.016;2023-04-24T13:27:58;1.80;;;1.70;;
65071;SDS011;51663;52.310;17.016;2023-04-24T13:31:00;2.05;;;1.95;;
65071;SDS011;51663;52.310;17.016;2023-04-24T13:34:03;11.07;;;2.22;;
65071;SDS011;51663;52.310;17.016;2023-04-24T13:37:05;3.75;;;1.90;;
65071;SDS011;51663;52.310;17.016;2023-04-24T13:40:11;1.50;;;1.40;;
65071;SDS011;51663;52.310;17.016;2023-04-24T13:43:16;1.90;;;1.50;;
65071;SDS011;51663;52.310;17.016;2023-04-24T13:46:21;7.72;;;4.63;;
65071;SDS011;51663;52.310;17.016;2023-04-24T13:49:24;2.63;;;2.20;;
65071;SDS011;51663;52.310;17.016;2023-04-24T13:52:30;5.10;;;2.47;;
65071;SDS011;51663;52.310;17.016;2023-04-24T13:55:33;1.85;;;1.63;;
65071;SDS011;51663;52.310;17.016;2023-04-24T13:58:36;2.65;;;1.70;;
65071;SDS011;51663;52.310;17.016;2023-04-24T14:01:38;4.50;;;1.70;;
65071;SDS011;51663;52.310;17.016;2023-04-24T14:04:41;6.57;;;1.98;;
65071;SDS011;51663;52.310;17.016;2023-04-24T14:07:44;15.57;;;2.53;;
65071;SDS011;51663;52.310;17.016;2023-04-24T14:10:47;1.90;;;1.80;;
65071;SDS011;51663;52.310;17.016;2023-04-24T14:13:49;2.47;;;1.60;;
65071;SDS011;51663;52.310;17.016;2023-04-24T14:16:51;1.63;;;1.50;;
65071;SDS011;51663;52.310;17.016;2023-04-24T14:19:55;6.45;;;2.05;;
65071;SDS011;51663;52.310;17.016;2023-04-24T14:22:58;1.60;;;1.50;;
65071;SDS011;51663;52.310;17.016;2023-04-24T14:26:00;1.40;;;1.30;;
65071;SDS011;51663;52.310;17.016;2023-04-24T14:29:02;1.88;;;1.50;;
65071;SDS011;51663;52.310;17.016;2023-04-24T14:32:15;1.95;;;1.60;;
65071;SDS011;51663;52.310;17.016;2023-04-24T14:35:17;2.30;;;2.10;;
65071;SDS011;51663;52.310;17.016;2023-04-24T14:38:19;2.65;;;2.10;;
65071;SDS011;51663;52.310;17.016;2023-04-24T14:41:23;1.98;;;1.60;;
65071;SDS011;51663;52.310;17.016;2023-04-24T14:44:25;2.95;;;1.98;;
65071;SDS011;51663;52.310;17.016;2023-04-24T14:47:28;1.80;;;1.70;;
65071;SDS011;51663;52.310;17.016;2023-04-24T14:50:30;2.70;;;1.90;;
65071;SDS011;51663;52.310;17.016;2023-04-24T14:53:33;2.05;;;1.83;;
65071;SDS011;51663;52.310;17.016;2023-04-24T14:56:36;2.20;;;2.00;;
65071;SDS011;51663;52.310;17.016;2023-04-24T14:59:39;2.22;;;1.90;;
65071;SDS011;51663;52.310;17.016;2023-04-24T15:02:41;1.85;;;1.70;;
65071;SDS011;51663;52.310;17.016;2023-04-24T15:05:46;2.15;;;1.88;;
65071;SDS011;51663;52.310;17.016;2023-04-24T15:08:49;2.78;;;2.30;;
65071;SDS011;51663;52.310;17.016;2023-04-24T15:11:51;3.65;;;2.30;;
65071;SDS011;51663;52.310;17.016;2023-04-24T15:14:53;3.85;;;2.50;;
65071;SDS011;51663;52.310;17.016;2023-04-24T15:17:56;2.50;;;2.20;;
65071;SDS011;51663;52.310;17.016;2023-04-24T15:20:58;3.38;;;3.08;;
65071;SDS011;51663;52.310;17.016;2023-04-24T15:24:03;4.45;;;2.60;;
65071;SDS011;51663;52.310;17.016;2023-04-24T15:27:08;4.22;;;3.92;;
65071;SDS011;51663;52.310;17.016;2023-04-24T15:30:12;7.57;;;4.82;;
65071;SDS011;51663;52.310;17.016;2023-04-24T15:33:14;3.70;;;3.00;;
65071;SDS011;51663;52.310;17.016;2023-04-24T15:36:17;5.20;;;3.03;;
65071;SDS011;51663;52.310;17.016;2023-04-24T15:39:21;3.25;;;3.00;;
65071;SDS011;51663;52.310;17.016;2023-04-24T15:42:26;3.85;;;3.45;;
65071;SDS011;51663;52.310;17.016;2023-04-24T15:45:52;8.57;;;7.40;;
65071;SDS011;51663;52.310;17.016;2023-04-24T15:48:55;25.75;;;19.02;;
65071;SDS011;51663;52.310;17.016;2023-04-24T15:51:57;25.92;;;19.42;;
65071;SDS011;51663;52.310;17.016;2023-04-24T15:55:00;17.73;;;13.13;;
65071;SDS011;51663;52.310;17.016;2023-04-24T15:58:05;15.95;;;12.60;;
65071;SDS011;51663;52.310;17.016;2023-04-24T16:01:07;12.80;;;8.57;;
65071;SDS011;51663;52.310;17.016;2023-04-24T16:04:09;11.13;;;9.93;;
65071;SDS011;51663;52.310;17.016;2023-04-24T16:07:13;12.45;;;8.35;;
65071;SDS011;51663;52.310;17.016;2023-04-24T16:10:16;10.20;;;7.68;;
65071;SDS011;51663;52.310;17.016;2023-04-24T16:13:19;10.00;;;6.47;;
65071;SDS011;51663;52.310;17.016;2023-04-24T16:16:21;11.20;;;7.55;;
65071;SDS011;51663;52.310;17.016;2023-04-24T16:19:26;12.40;;;8.80;;
65071;SDS011;51663;52.310;17.016;2023-04-24T16:22:31;5.57;;;5.07;;
65071;SDS011;51663;52.310;17.016;2023-04-24T16:25:33;6.50;;;4.78;;
65071;SDS011;51663;52.310;17.016;2023-04-24T16:28:36;4.57;;;4.18;;
65071;SDS011;51663;52.310;17.016;2023-04-24T16:31:40;3.88;;;3.58;;
65071;SDS011;51663;52.310;17.016;2023-04-24T16:34:42;4.40;;;3.80;;
65071;SDS011;51663;52.310;17.016;2023-04-24T16:37:44;3.97;;;3.47;;
65071;SDS011;51663;52.310;17.016;2023-04-24T16:40:47;5.22;;;3.67;;
65071;SDS011;51663;52.310;17.016;2023-04-24T16:43:49;5.78;;;3.65;;
65071;SDS011;51663;52.310;17.016;2023-04-24T16:46:52;7.35;;;5.53;;
65071;SDS011;51663;52.310;17.016;2023-04-24T16:49:54;9.40;;;7.30;;
65071;SDS011;51663;52.310;17.016;2023-04-24T16:52:56;10.50;;;7.53;;
65071;SDS011;51663;52.310;17.016;2023-04-24T16:55:59;8.60;;;7.15;;
65071;SDS011;51663;52.310;17.016;2023-04-24T16:59:01;5.47;;;4.93;;
65071;SDS011;51663;52.310;17.016;2023-04-24T17:02:04;4.90;;;4.45;;
65071;SDS011;51663;52.310;17.016;2023-04-24T17:05:06;6.03;;;5.43;;
65071;SDS011;51663;52.310;17.016;2023-04-24T17:08:09;10.45;;;7.50;;
65071;SDS011;51663;52.310;17.016;2023-04-24T17:11:11;16.45;;;14.82;;
65071;SDS011;51663;52.310;17.016;2023-04-24T17:14:22;16.73;;;14.35;;
65071;SDS011;51663;52.310;17.016;2023-04-24T17:17:26;8.93;;;8.02;;
65071;SDS011;51663;52.310;17.016;2023-04-24T17:20:29;8.48;;;6.32;;
65071;SDS011;51663;52.310;17.016;2023-04-24T17:23:37;7.70;;;6.57;;
65071;SDS011;51663;52.310;17.016;2023-04-24T17:26:44;6.70;;;5.90;;
65071;SDS011;51663;52.310;17.016;2023-04-24T17:29:51;9.23;;;5.85;;
65071;SDS011;51663;52.310;17.016;2023-04-24T17:32:54;5.20;;;4.18;;
65071;SDS011;51663;52.310;17.016;2023-04-24T17:35:56;4.25;;;3.85;;
65071;SDS011;51663;52.310;17.016;2023-04-24T17:39:00;4.43;;;3.80;;
65071;SDS011;51663;52.310;17.016;2023-04-24T17:42:02;4.70;;;4.15;;
65071;SDS011;51663;52.310;17.016;2023-04-24T17:45:05;5.25;;;4.10;;
65071;SDS011;51663;52.310;17.016;2023-04-24T17:48:07;4.53;;;3.38;;
65071;SDS011;51663;52.310;17.016;2023-04-24T17:51:10;3.10;;;2.80;;
65071;SDS011;51663;52.310;17.016;2023-04-24T17:54:15;3.97;;;2.63;;
65071;SDS011;51663;52.310;17.016;2023-04-24T17:57:19;2.67;;;2.42;;
65071;SDS011;51663;52.310;17.016;2023-04-24T18:00:21;3.05;;;2.78;;
65071;SDS011;51663;52.310;17.016;2023-04-24T18:03:24;6.95;;;3.65;;
65071;SDS011;51663;52.310;17.016;2023-04-24T18:06:26;17.67;;;6.35;;
65071;SDS011;51663;52.310;17.016;2023-04-24T18:09:30;5.45;;;4.00;;
65071;SDS011;51663;52.310;17.016;2023-04-24T18:12:32;6.95;;;3.80;;
65071;SDS011;51663;52.310;17.016;2023-04-24T18:15:35;6.47;;;4.10;;
65071;SDS011;51663;52.310;17.016;2023-04-24T18:18:37;5.72;;;4.18;;
65071;SDS011;51663;52.310;17.016;2023-04-24T18:21:40;6.68;;;4.93;;
65071;SDS011;51663;52.310;17.016;2023-04-24T18:24:42;6.18;;;5.53;;
65071;SDS011;51663;52.310;17.016;2023-04-24T18:27:45;5.68;;;4.75;;
65071;SDS011;51663;52.310;17.016;2023-04-24T18:30:53;6.32;;;5.25;;
65071;SDS011;51663;52.310;17.016;2023-04-24T18:33:56;7.28;;;5.75;;
65071;SDS011;51663;52.310;17.016;2023-04-24T18:36:58;10.00;;;6.10;;
65071;SDS011;51663;52.310;17.016;2023-04-24T18:40:01;7.07;;;5.67;;
65071;SDS011;51663;52.310;17.016;2023-04-24T18:43:16;6.00;;;5.20;;
65071;SDS011;51663;52.310;17.016;2023-04-24T18:46:22;5.60;;;4.93;;
65071;SDS011;51663;52.310;17.016;2023-04-24T18:49:26;8.07;;;4.85;;
65071;SDS011;51663;52.310;17.016;2023-04-24T18:52:39;5.60;;;4.97;;
65071;SDS011;51663;52.310;17.016;2023-04-24T18:55:49;4.68;;;4.05;;
65071;SDS011;51663;52.310;17.016;2023-04-24T18:58:57;4.20;;;3.33;;
65071;SDS011;51663;52.310;17.016;2023-04-24T19:02:02;3.90;;;3.50;;
65071;SDS011;51663;52.310;17.016;2023-04-24T19:05:22;5.57;;;3.88;;
65071;SDS011;51663;52.310;17.016;2023-04-24T19:08:26;4.13;;;3.73;;
65071;SDS011;51663;52.310;17.016;2023-04-24T19:11:44;5.90;;;4.63;;
65071;SDS011;51663;52.310;17.016;2023-04-24T19:20:02;5.67;;;5.17;;
65071;SDS011;51663;52.310;17.016;2023-04-24T19:23:22;9.37;;;7.27;;
65071;SDS011;51663;52.310;17.016;2023-04-24T19:27:05;13.27;;;9.17;;
65071;SDS011;51663;52.310;17.016;2023-04-24T19:30:09;12.47;;;9.27;;
65071;SDS011;51663;52.310;17.016;2023-04-24T19:33:12;13.50;;;9.53;;
65071;SDS011;51663;52.310;17.016;2023-04-24T19:36:18;37.10;;;22.60;;
65071;SDS011;51663;52.310;17.016;2023-04-24T19:39:35;17.93;;;11.13;;
65071;SDS011;51663;52.310;17.016;2023-04-24T19:42:38;11.37;;;9.20;;
65071;SDS011;51663;52.310;17.016;2023-04-24T19:45:45;12.07;;;9.23;;
65071;SDS011;51663;52.310;17.016;2023-04-24T19:48:51;13.98;;;8.80;;
65071;SDS011;51663;52.310;17.016;2023-04-24T19:51:54;11.80;;;8.55;;
65071;SDS011;51663;52.310;17.016;2023-04-24T19:54:58;10.50;;;8.27;;
65071;SDS011;51663;52.310;17.016;2023-04-24T19:58:01;10.27;;;7.47;;
65071;SDS011;51663;52.310;17.016;2023-04-24T20:01:04;9.37;;;7.60;;
65071;SDS011;51663;52.310;17.016;2023-04-24T20:07:35;7.63;;;6.93;;
65071;SDS011;51663;52.310;17.016;2023-04-24T20:10:48;9.57;;;6.87;;
65071;SDS011;51663;52.310;17.016;2023-04-24T20:14:12;10.47;;;7.37;;
65071;SDS011;51663;52.310;17.016;2023-04-24T20:18:01;8.57;;;7.17;;
65071;SDS011;51663;52.310;17.016;2023-04-24T20:21:32;10.07;;;7.53;;
65071;SDS011;51663;52.310;17.016;2023-04-24T20:25:20;6.50;;;5.72;;
65071;SDS011;51663;52.310;17.016;2023-04-24T20:28:52;7.13;;;6.40;;
65071;SDS011;51663;52.310;17.016;2023-04-24T20:33:02;6.93;;;6.23;;
65071;SDS011;51663;52.310;17.016;2023-04-24T20:36:10;6.87;;;6.17;;
65071;SDS011;51663;52.310;17.016;2023-04-24T20:39:19;8.53;;;7.37;;
65071;SDS011;51663;52.310;17.016;2023-04-24T20:46:48;8.63;;;6.50;;
65071;SDS011;51663;52.310;17.016;2023-04-24T20:50:07;10.50;;;7.53;;
65071;SDS011;51663;52.310;17.016;2023-04-24T20:53:10;7.37;;;6.67;;
65071;SDS011;51663;52.310;17.016;2023-04-24T20:56:17;7.73;;;6.80;;
65071;SDS011;51663;52.310;17.016;2023-04-24T20:59:34;9.80;;;7.03;;
65071;SDS011;51663;52.310;17.016;2023-04-24T21:02:51;10.02;;;7.47;;
65071;SDS011;51663;52.310;17.016;2023-04-24T21:06:08;9.47;;;7.17;;
65071;SDS011;51663;52.310;17.016;2023-04-24T21:09:56;8.23;;;7.50;;
65071;SDS011;51663;52.310;17.016;2023-04-24T21:14:01;8.87;;;7.60;;
65071;SDS011;51663;52.310;17.016;2023-04-24T21:17:53;11.03;;;7.83;;
65071;SDS011;51663;52.310;17.016;2023-04-24T21:21:20;10.03;;;7.60;;
65071;SDS011;51663;52.310;17.016;2023-04-24T21:24:58;8.80;;;7.30;;
65071;SDS011;51663;52.310;17.016;2023-04-24T21:28:32;20.23;;;14.63;;
65071;SDS011;51663;52.310;17.016;2023-04-24T21:31:55;10.00;;;7.87;;
65071;SDS011;51663;52.310;17.016;2023-04-24T21:35:56;9.00;;;7.07;;
65071;SDS011;51663;52.310;17.016;2023-04-24T21:39:19;8.30;;;7.03;;
65071;SDS011;51663;52.310;17.016;2023-04-24T21:42:22;7.80;;;6.23;;
65071;SDS011;51663;52.310;17.016;2023-04-24T21:50:09;6.13;;;5.50;;
65071;SDS011;51663;52.310;17.016;2023-04-24T21:57:08;6.80;;;5.73;;
65071;SDS011;51663;52.310;17.016;2023-04-24T22:01:10;4.63;;;4.23;;
65071;SDS011;51663;52.310;17.016;2023-04-24T22:05:15;5.40;;;4.53;;
65071;SDS011;51663;52.310;17.016;2023-04-24T22:08:18;5.20;;;4.43;;
65071;SDS011;51663;52.310;17.016;2023-04-24T22:12:20;4.43;;;4.03;;
65071;SDS011;51663;52.310;17.016;2023-04-24T22:20:00;5.20;;;4.70;;
65071;SDS011;51663;52.310;17.016;2023-04-24T22:23:45;7.00;;;4.83;;
65071;SDS011;51663;52.310;17.016;2023-04-24T22:40:54;4.73;;;3.70;;
65071;SDS011;51663;52.310;17.016;2023-04-24T22:53:08;3.33;;;2.77;;
65071;SDS011;51663;52.310;17.016;2023-04-24T22:56:19;3.27;;;2.97;;
65071;SDS011;51663;52.310;17.016;2023-04-24T23:00:00;2.70;;;2.50;;
65071;SDS011;51663;52.310;17.016;2023-04-24T23:03:42;4.23;;;2.70;;
65071;SDS011;51663;52.310;17.016;2023-04-24T23:07:11;2.73;;;2.00;;
65071;SDS011;51663;52.310;17.016;2023-04-24T23:10:13;2.50;;;2.30;;
65071;SDS011;51663;52.310;17.016;2023-04-24T23:18:42;2.70;;;1.87;;
65071;SDS011;51663;52.310;17.016;2023-04-24T23:23:06;2.10;;;1.83;;
65071;SDS011;51663;52.310;17.016;2023-04-24T23:31:26;2.33;;;1.60;;
65071;SDS011;51663;52.310;17.016;2023-04-24T23:34:42;1.90;;;1.70;;
65071;SDS011;51663;52.310;17.016;2023-04-24T23:54:44;1.90;;;1.70;;
65071;SDS011;51663;52.310;17.016;2023-04-24T23:59:04;2.57;;;1.27;;
